sensor_id;sensor_type;location;lat;lon;timestamp;P1;durP1;ratioP1;P2;durP2;ratioP2
1412;SDS011;701;52.526;13.408;2022-09-13T00:01:25;10.20;;;4.13;;
1412;SDS011;701;52.526;13.408;2022-09-13T00:03:51;9.65;;;4.00;;
1412;SDS011;701;52.526;13.408;2022-09-13T00:06:17;7.73;;;4.03;;
1412;SDS011;701;52.526;13.408;2022-09-13T00:08:44;7.40;;;3.85;;
1412;SDS011;701;52.526;13.408;2022-09-13T00:11:14;9.23;;;3.75;;
1412;SDS011;701;52.526;13.408;2022-09-13T00:13:41;9.82;;;3.88;;
1412;SDS011;701;52.526;13.408;2022-09-13T00:16:10;8.13;;;3.50;;
1412;SDS011;701;52.526;13.408;2022-09-13T00:18:37;6.53;;;3.25;;
1412;SDS011;701;52.526;13.408;2022-09-13T00:21:21;7.65;;;3.55;;
1412;SDS011;701;52.526;13.408;2022-09-13T00:23:52;6.60;;;3.55;;
1412;SDS011;701;52.526;13.408;2022-09-13T00:26:23;7.97;;;3.55;;
1412;SDS011;701;52.526;13.408;2022-09-13T00:28:53;6.47;;;3.30;;
1412;SDS011;701;52.526;13.408;2022-09-13T00:31:20;8.35;;;3.72;;
1412;SDS011;701;52.526;13.408;2022-09-13T00:33:48;6.65;;;3.47;;
1412;SDS011;701;52.526;13.408;2022-09-13T00:36:14;6.93;;;3.08;;
1412;SDS011;701;52.526;13.408;2022-09-13T00:38:40;6.22;;;3.17;;
1412;SDS011;701;52.526;13.408;2022-09-13T00:41:08;7.90;;;3.63;;
1412;SDS011;701;52.526;13.408;2022-09-13T00:46:10;6.32;;;3.30;;
1412;SDS011;701;52.526;13.408;2022-09-13T00:48:40;7.20;;;3.33;;
1412;SDS011;701;52.526;13.408;2022-09-13T00:51:08;8.25;;;3.58;;
1412;SDS011;701;52.526;13.408;2022-09-13T00:53:38;6.90;;;3.70;;
1412;SDS011;701;52.526;13.408;2022-09-13T00:56:12;6.53;;;3.55;;
1412;SDS011;701;52.526;13.408;2022-09-13T00:58:43;5.95;;;3.30;;
1412;SDS011;701;52.526;13.408;2022-09-13T01:01:13;6.65;;;3.45;;
1412;SDS011;701;52.526;13.408;2022-09-13T01:03:41;7.50;;;3.47;;
1412;SDS011;701;52.526;13.408;2022-09-13T01:06:10;6.17;;;3.30;;
1412;SDS011;701;52.526;13.408;2022-09-13T01:08:40;8.30;;;3.42;;
1412;SDS011;701;52.526;13.408;2022-09-13T01:11:10;6.82;;;3.58;;
1412;SDS011;701;52.526;13.408;2022-09-13T01:13:45;8.98;;;3.78;;
1412;SDS011;701;52.526;13.408;2022-09-13T01:16:12;6.25;;;3.45;;
1412;SDS011;701;52.526;13.408;2022-09-13T01:18:37;6.80;;;3.40;;
1412;SDS011;701;52.526;13.408;2022-09-13T01:24:25;6.43;;;3.07;;
1412;SDS011;701;52.526;13.408;2022-09-13T01:52:07;9.93;;;3.37;;
1412;SDS011;701;52.526;13.408;2022-09-13T01:57:34;9.23;;;3.50;;
1412;SDS011;701;52.526;13.408;2022-09-13T02:00:11;7.10;;;3.50;;
1412;SDS011;701;52.526;13.408;2022-09-13T02:02:39;6.93;;;3.50;;
1412;SDS011;701;52.526;13.408;2022-09-13T02:05:20;9.50;;;3.80;;
1412;SDS011;701;52.526;13.408;2022-09-13T02:07:53;7.72;;;3.70;;
1412;SDS011;701;52.526;13.408;2022-09-13T02:10:33;8.48;;;3.80;;
1412;SDS011;701;52.526;13.408;2022-09-13T02:13:04;7.82;;;3.63;;
1412;SDS011;701;52.526;13.408;2022-09-13T02:15:36;7.00;;;3.30;;
1412;SDS011;701;52.526;13.408;2022-09-13T02:18:11;7.90;;;3.67;;
1412;SDS011;701;52.526;13.408;2022-09-13T02:20:47;6.22;;;3.40;;
1412;SDS011;701;52.526;13.408;2022-09-13T02:23:17;8.45;;;4.05;;
1412;SDS011;701;52.526;13.408;2022-09-13T02:26:06;6.45;;;3.40;;
1412;SDS011;701;52.526;13.408;2022-09-13T02:28:37;7.30;;;3.47;;
1412;SDS011;701;52.526;13.408;2022-09-13T02:31:07;6.77;;;3.33;;
1412;SDS011;701;52.526;13.408;2022-09-13T02:33:36;8.38;;;3.88;;
1412;SDS011;701;52.526;13.408;2022-09-13T02:36:23;7.25;;;3.67;;
1412;SDS011;701;52.526;13.408;2022-09-13T02:38:59;6.85;;;3.83;;
1412;SDS011;701;52.526;13.408;2022-09-13T02:49:48;7.55;;;3.83;;
1412;SDS011;701;52.526;13.408;2022-09-13T02:55:34;12.50;;;4.00;;
1412;SDS011;701;52.526;13.408;2022-09-13T03:00:53;6.22;;;3.40;;
1412;SDS011;701;52.526;13.408;2022-09-13T03:03:19;9.90;;;3.90;;
1412;SDS011;701;52.526;13.408;2022-09-13T03:05:45;6.30;;;3.40;;
1412;SDS011;701;52.526;13.408;2022-09-13T03:08:11;6.20;;;3.43;;
1412;SDS011;701;52.526;13.408;2022-09-13T03:10:43;8.55;;;3.72;;
1412;SDS011;701;52.526;13.408;2022-09-13T03:21:41;6.97;;;3.58;;
1412;SDS011;701;52.526;13.408;2022-09-13T03:35:48;6.47;;;3.60;;
1412;SDS011;701;52.526;13.408;2022-09-13T03:38:27;7.13;;;3.92;;
1412;SDS011;701;52.526;13.408;2022-09-13T03:40:59;7.00;;;3.90;;
1412;SDS011;701;52.526;13.408;2022-09-13T03:43:38;7.20;;;3.70;;
1412;SDS011;701;52.526;13.408;2022-09-13T03:46:15;11.10;;;3.90;;
1412;SDS011;701;52.526;13.408;2022-09-13T03:48:47;6.60;;;3.67;;
1412;SDS011;701;52.526;13.408;2022-09-13T03:51:13;7.03;;;3.38;;
1412;SDS011;701;52.526;13.408;2022-09-13T03:53:41;7.38;;;3.60;;
1412;SDS011;701;52.526;13.408;2022-09-13T03:56:11;7.57;;;4.07;;
1412;SDS011;701;52.526;13.408;2022-09-13T03:58:41;7.03;;;4.07;;
1412;SDS011;701;52.526;13.408;2022-09-13T04:01:08;8.15;;;3.88;;
1412;SDS011;701;52.526;13.408;2022-09-13T04:03:36;8.85;;;4.07;;
1412;SDS011;701;52.526;13.408;2022-09-13T04:06:03;7.95;;;4.10;;
1412;SDS011;701;52.526;13.408;2022-09-13T04:08:30;7.97;;;4.00;;
1412;SDS011;701;52.526;13.408;2022-09-13T04:10:56;10.65;;;3.90;;
1412;SDS011;701;52.526;13.408;2022-09-13T04:13:22;12.25;;;5.30;;
1412;SDS011;701;52.526;13.408;2022-09-13T04:15:48;9.52;;;5.25;;
1412;SDS011;701;52.526;13.408;2022-09-13T04:18:15;7.40;;;4.40;;
1412;SDS011;701;52.526;13.408;2022-09-13T04:20:41;7.93;;;3.80;;
1412;SDS011;701;52.526;13.408;2022-09-13T04:23:07;8.82;;;4.43;;
1412;SDS011;701;52.526;13.408;2022-09-13T04:25:36;7.22;;;4.20;;
1412;SDS011;701;52.526;13.408;2022-09-13T04:28:02;6.93;;;3.97;;
1412;SDS011;701;52.526;13.408;2022-09-13T04:30:28;7.40;;;3.90;;
1412;SDS011;701;52.526;13.408;2022-09-13T04:32:55;8.13;;;4.53;;
1412;SDS011;701;52.526;13.408;2022-09-13T04:35:22;9.40;;;4.28;;
1412;SDS011;701;52.526;13.408;2022-09-13T04:37:47;8.13;;;4.60;;
1412;SDS011;701;52.526;13.408;2022-09-13T04:40:13;8.57;;;4.60;;
1412;SDS011;701;52.526;13.408;2022-09-13T04:42:39;8.33;;;4.40;;
1412;SDS011;701;52.526;13.408;2022-09-13T04:45:05;9.88;;;4.68;;
1412;SDS011;701;52.526;13.408;2022-09-13T04:47:32;7.32;;;4.53;;
1412;SDS011;701;52.526;13.408;2022-09-13T04:49:57;7.83;;;4.57;;
1412;SDS011;701;52.526;13.408;2022-09-13T04:52:23;8.20;;;4.32;;
1412;SDS011;701;52.526;13.408;2022-09-13T04:54:49;8.82;;;4.43;;
1412;SDS011;701;52.526;13.408;2022-09-13T04:57:15;7.47;;;4.63;;
1412;SDS011;701;52.526;13.408;2022-09-13T04:59:42;7.90;;;4.32;;
1412;SDS011;701;52.526;13.408;2022-09-13T05:02:07;12.73;;;4.40;;
1412;SDS011;701;52.526;13.408;2022-09-13T05:04:33;11.13;;;4.60;;
1412;SDS011;701;52.526;13.408;2022-09-13T05:06:59;11.93;;;4.65;;
1412;SDS011;701;52.526;13.408;2022-09-13T05:09:25;12.60;;;4.97;;
1412;SDS011;701;52.526;13.408;2022-09-13T05:11:50;9.10;;;4.23;;
1412;SDS011;701;52.526;13.408;2022-09-13T05:14:16;9.63;;;4.30;;
1412;SDS011;701;52.526;13.408;2022-09-13T05:16:42;14.50;;;4.47;;
1412;SDS011;701;52.526;13.408;2022-09-13T05:19:08;26.90;;;6.20;;
1412;SDS011;701;52.526;13.408;2022-09-13T05:21:35;17.50;;;5.00;;
1412;SDS011;701;52.526;13.408;2022-09-13T05:24:01;36.90;;;6.90;;
1412;SDS011;701;52.526;13.408;2022-09-13T05:26:28;19.10;;;5.95;;
1412;SDS011;701;52.526;13.408;2022-09-13T05:28:58;26.30;;;6.33;;
1412;SDS011;701;52.526;13.408;2022-09-13T05:31:25;17.55;;;5.10;;
1412;SDS011;701;52.526;13.408;2022-09-13T05:33:57;8.30;;;4.78;;
1412;SDS011;701;52.526;13.408;2022-09-13T05:36:24;11.93;;;4.85;;
1412;SDS011;701;52.526;13.408;2022-09-13T05:38:51;11.73;;;4.85;;
1412;SDS011;701;52.526;13.408;2022-09-13T05:41:21;9.03;;;4.97;;
1412;SDS011;701;52.526;13.408;2022-09-13T05:43:47;11.95;;;5.10;;
1412;SDS011;701;52.526;13.408;2022-09-13T05:46:14;12.90;;;4.82;;
1412;SDS011;701;52.526;13.408;2022-09-13T05:48:41;11.07;;;5.65;;
1412;SDS011;701;52.526;13.408;2022-09-13T05:53:35;14.63;;;5.57;;
1412;SDS011;701;52.526;13.408;2022-09-13T05:56:04;9.60;;;4.78;;
1412;SDS011;701;52.526;13.408;2022-09-13T05:58:30;14.95;;;4.97;;
1412;SDS011;701;52.526;13.408;2022-09-13T06:00:56;12.57;;;5.68;;
1412;SDS011;701;52.526;13.408;2022-09-13T06:03:22;12.97;;;4.87;;
1412;SDS011;701;52.526;13.408;2022-09-13T06:05:48;10.02;;;4.93;;
1412;SDS011;701;52.526;13.408;2022-09-13T06:08:18;12.65;;;5.20;;
1412;SDS011;701;52.526;13.408;2022-09-13T06:10:51;9.73;;;5.20;;
1412;SDS011;701;52.526;13.408;2022-09-13T06:13:25;10.38;;;5.25;;
1412;SDS011;701;52.526;13.408;2022-09-13T06:15:51;12.07;;;6.88;;
1412;SDS011;701;52.526;13.408;2022-09-13T06:18:18;11.90;;;5.57;;
1412;SDS011;701;52.526;13.408;2022-09-13T06:20:44;13.90;;;5.90;;
1412;SDS011;701;52.526;13.408;2022-09-13T06:23:10;10.50;;;5.32;;
1412;SDS011;701;52.526;13.408;2022-09-13T06:25:37;10.20;;;5.28;;
1412;SDS011;701;52.526;13.408;2022-09-13T06:28:03;15.67;;;6.20;;
1412;SDS011;701;52.526;13.408;2022-09-13T06:30:29;9.77;;;5.20;;
1412;SDS011;701;52.526;13.408;2022-09-13T06:32:58;13.25;;;6.22;;
1412;SDS011;701;52.526;13.408;2022-09-13T06:35:24;9.90;;;5.37;;
1412;SDS011;701;52.526;13.408;2022-09-13T06:37:50;14.02;;;6.45;;
1412;SDS011;701;52.526;13.408;2022-09-13T06:40:18;10.98;;;6.18;;
1412;SDS011;701;52.526;13.408;2022-09-13T06:42:46;9.48;;;5.68;;
1412;SDS011;701;52.526;13.408;2022-09-13T06:45:12;13.77;;;6.73;;
1412;SDS011;701;52.526;13.408;2022-09-13T06:47:38;12.90;;;6.88;;
1412;SDS011;701;52.526;13.408;2022-09-13T06:50:04;16.38;;;6.30;;
1412;SDS011;701;52.526;13.408;2022-09-13T06:52:31;11.40;;;6.70;;
1412;SDS011;701;52.526;13.408;2022-09-13T06:54:57;14.00;;;6.35;;
1412;SDS011;701;52.526;13.408;2022-09-13T06:57:23;14.23;;;5.78;;
1412;SDS011;701;52.526;13.408;2022-09-13T06:59:48;14.13;;;7.00;;
1412;SDS011;701;52.526;13.408;2022-09-13T07:02:14;14.40;;;6.67;;
1412;SDS011;701;52.526;13.408;2022-09-13T07:04:40;13.33;;;7.63;;
1412;SDS011;701;52.526;13.408;2022-09-13T07:07:05;10.47;;;5.97;;
1412;SDS011;701;52.526;13.408;2022-09-13T07:09:31;12.40;;;6.28;;
1412;SDS011;701;52.526;13.408;2022-09-13T07:11:58;10.63;;;5.72;;
1412;SDS011;701;52.526;13.408;2022-09-13T07:14:27;14.83;;;5.90;;
1412;SDS011;701;52.526;13.408;2022-09-13T07:16:53;12.05;;;6.28;;
1412;SDS011;701;52.526;13.408;2022-09-13T07:19:20;28.23;;;6.93;;
1412;SDS011;701;52.526;13.408;2022-09-13T07:21:48;10.68;;;5.63;;
1412;SDS011;701;52.526;13.408;2022-09-13T07:24:15;11.45;;;5.82;;
1412;SDS011;701;52.526;13.408;2022-09-13T07:26:41;20.23;;;6.00;;
1412;SDS011;701;52.526;13.408;2022-09-13T07:29:09;12.90;;;6.03;;
1412;SDS011;701;52.526;13.408;2022-09-13T07:31:38;10.48;;;6.07;;
1412;SDS011;701;52.526;13.408;2022-09-13T07:34:06;16.55;;;6.53;;
1412;SDS011;701;52.526;13.408;2022-09-13T07:36:36;17.65;;;9.13;;
1412;SDS011;701;52.526;13.408;2022-09-13T07:39:03;14.67;;;8.00;;
1412;SDS011;701;52.526;13.408;2022-09-13T07:41:30;13.68;;;6.32;;
1412;SDS011;701;52.526;13.408;2022-09-13T07:43:57;13.10;;;5.93;;
1412;SDS011;701;52.526;13.408;2022-09-13T07:46:28;12.95;;;6.30;;
1412;SDS011;701;52.526;13.408;2022-09-13T07:48:58;11.75;;;6.35;;
1412;SDS011;701;52.526;13.408;2022-09-13T07:51:25;13.30;;;6.10;;
1412;SDS011;701;52.526;13.408;2022-09-13T07:54:03;11.10;;;6.20;;
1412;SDS011;701;52.526;13.408;2022-09-13T07:56:34;11.60;;;6.35;;
1412;SDS011;701;52.526;13.408;2022-09-13T07:59:02;13.43;;;5.93;;
1412;SDS011;701;52.526;13.408;2022-09-13T08:01:33;11.60;;;6.20;;
1412;SDS011;701;52.526;13.408;2022-09-13T08:04:02;10.57;;;6.13;;
1412;SDS011;701;52.526;13.408;2022-09-13T08:06:30;10.95;;;6.50;;
1412;SDS011;701;52.526;13.408;2022-09-13T08:08:57;12.02;;;6.68;;
1412;SDS011;701;52.526;13.408;2022-09-13T08:11:24;11.50;;;6.72;;
1412;SDS011;701;52.526;13.408;2022-09-13T08:13:55;14.80;;;6.60;;
1412;SDS011;701;52.526;13.408;2022-09-13T08:16:22;11.23;;;5.47;;
1412;SDS011;701;52.526;13.408;2022-09-13T08:18:53;15.55;;;6.00;;
1412;SDS011;701;52.526;13.408;2022-09-13T08:21:20;10.93;;;6.55;;
1412;SDS011;701;52.526;13.408;2022-09-13T08:23:47;12.73;;;6.47;;
1412;SDS011;701;52.526;13.408;2022-09-13T08:26:13;14.07;;;6.28;;
1412;SDS011;701;52.526;13.408;2022-09-13T08:28:40;11.87;;;5.97;;
1412;SDS011;701;52.526;13.408;2022-09-13T08:31:14;14.90;;;6.32;;
1412;SDS011;701;52.526;13.408;2022-09-13T08:33:44;10.27;;;6.00;;
1412;SDS011;701;52.526;13.408;2022-09-13T08:36:12;11.98;;;6.25;;
1412;SDS011;701;52.526;13.408;2022-09-13T08:38:43;11.88;;;6.53;;
1412;SDS011;701;52.526;13.408;2022-09-13T08:43:58;13.43;;;5.45;;
1412;SDS011;701;52.526;13.408;2022-09-13T08:46:37;9.00;;;5.82;;
1412;SDS011;701;52.526;13.408;2022-09-13T08:49:06;13.60;;;6.30;;
1412;SDS011;701;52.526;13.408;2022-09-13T08:51:37;11.75;;;5.97;;
1412;SDS011;701;52.526;13.408;2022-09-13T08:54:15;16.67;;;6.60;;
1412;SDS011;701;52.526;13.408;2022-09-13T08:56:54;10.32;;;6.15;;
1412;SDS011;701;52.526;13.408;2022-09-13T09:02:22;9.38;;;5.70;;
1412;SDS011;701;52.526;13.408;2022-09-13T09:05:20;18.42;;;6.38;;
1412;SDS011;701;52.526;13.408;2022-09-13T09:07:51;10.97;;;5.83;;
1412;SDS011;701;52.526;13.408;2022-09-13T09:10:36;9.50;;;5.82;;
1412;SDS011;701;52.526;13.408;2022-09-13T09:15:57;9.60;;;5.22;;
1412;SDS011;701;52.526;13.408;2022-09-13T09:18:30;12.70;;;6.38;;
1412;SDS011;701;52.526;13.408;2022-09-13T09:21:00;14.77;;;5.27;;
1412;SDS011;701;52.526;13.408;2022-09-13T09:26:21;11.88;;;5.43;;
1412;SDS011;701;52.526;13.408;2022-09-13T09:31:23;11.07;;;5.78;;
1412;SDS011;701;52.526;13.408;2022-09-13T09:34:45;9.33;;;4.97;;
1412;SDS011;701;52.526;13.408;2022-09-13T09:37:05;14.35;;;6.00;;
1412;SDS011;701;52.526;13.408;2022-09-13T09:39:36;21.20;;;5.72;;
1412;SDS011;701;52.526;13.408;2022-09-13T09:42:06;10.77;;;5.43;;
1412;SDS011;701;52.526;13.408;2022-09-13T09:44:42;11.98;;;5.72;;
1412;SDS011;701;52.526;13.408;2022-09-13T09:47:12;8.03;;;5.17;;
1412;SDS011;701;52.526;13.408;2022-09-13T09:49:45;15.18;;;5.35;;
1412;SDS011;701;52.526;13.408;2022-09-13T09:52:37;9.50;;;5.05;;
1412;SDS011;701;52.526;13.408;2022-09-13T09:55:16;12.00;;;5.43;;
1412;SDS011;701;52.526;13.408;2022-09-13T10:00:25;9.50;;;4.90;;
1412;SDS011;701;52.526;13.408;2022-09-13T10:02:55;8.82;;;4.85;;
1412;SDS011;701;52.526;13.408;2022-09-13T10:05:23;9.73;;;5.45;;
1412;SDS011;701;52.526;13.408;2022-09-13T10:07:57;9.15;;;4.78;;
1412;SDS011;701;52.526;13.408;2022-09-13T10:10:35;9.85;;;4.30;;
1412;SDS011;701;52.526;13.408;2022-09-13T10:13:04;10.10;;;4.50;;
1412;SDS011;701;52.526;13.408;2022-09-13T10:15:36;12.00;;;5.93;;
1412;SDS011;701;52.526;13.408;2022-09-13T10:18:16;8.88;;;4.97;;
1412;SDS011;701;52.526;13.408;2022-09-13T10:20:42;10.00;;;4.43;;
1412;SDS011;701;52.526;13.408;2022-09-13T10:23:31;8.20;;;4.72;;
1412;SDS011;701;52.526;13.408;2022-09-13T10:28:29;7.60;;;4.57;;
1412;SDS011;701;52.526;13.408;2022-09-13T10:31:08;10.27;;;4.85;;
1412;SDS011;701;52.526;13.408;2022-09-13T10:34:19;9.13;;;4.78;;
1412;SDS011;701;52.526;13.408;2022-09-13T10:38:59;10.73;;;4.97;;
1412;SDS011;701;52.526;13.408;2022-09-13T10:41:31;9.88;;;4.90;;
1412;SDS011;701;52.526;13.408;2022-09-13T10:44:03;9.50;;;5.03;;
1412;SDS011;701;52.526;13.408;2022-09-13T10:46:32;10.32;;;5.63;;
1412;SDS011;701;52.526;13.408;2022-09-13T10:49:01;11.30;;;5.25;;
1412;SDS011;701;52.526;13.408;2022-09-13T10:51:45;9.73;;;5.10;;
1412;SDS011;701;52.526;13.408;2022-09-13T10:56:42;8.68;;;5.55;;
1412;SDS011;701;52.526;13.408;2022-09-13T10:59:41;9.30;;;5.45;;
1412;SDS011;701;52.526;13.408;2022-09-13T11:04:41;11.80;;;6.17;;
1412;SDS011;701;52.526;13.408;2022-09-13T11:07:39;10.43;;;5.63;;
1412;SDS011;701;52.526;13.408;2022-09-13T11:21:43;20.98;;;6.28;;
1412;SDS011;701;52.526;13.408;2022-09-13T11:43:48;12.63;;;6.35;;
1412;SDS011;701;52.526;13.408;2022-09-13T11:46:35;13.50;;;6.05;;
1412;SDS011;701;52.526;13.408;2022-09-13T11:54:38;13.23;;;6.53;;
1412;SDS011;701;52.526;13.408;2022-09-13T11:57:16;10.65;;;5.82;;
1412;SDS011;701;52.526;13.408;2022-09-13T12:00:15;15.60;;;5.80;;
1412;SDS011;701;52.526;13.408;2022-09-13T12:05:28;13.50;;;6.20;;
1412;SDS011;701;52.526;13.408;2022-09-13T12:13:18;12.75;;;6.43;;
1412;SDS011;701;52.526;13.408;2022-09-13T12:15:51;15.20;;;5.68;;
1412;SDS011;701;52.526;13.408;2022-09-13T12:18:25;14.77;;;6.10;;
1412;SDS011;701;52.526;13.408;2022-09-13T12:21:02;13.93;;;6.43;;
1412;SDS011;701;52.526;13.408;2022-09-13T12:23:35;13.20;;;6.93;;
1412;SDS011;701;52.526;13.408;2022-09-13T12:26:08;12.45;;;6.18;;
1412;SDS011;701;52.526;13.408;2022-09-13T12:28:48;14.35;;;6.30;;
1412;SDS011;701;52.526;13.408;2022-09-13T12:31:22;12.70;;;6.80;;
1412;SDS011;701;52.526;13.408;2022-09-13T12:33:53;11.15;;;7.15;;
1412;SDS011;701;52.526;13.408;2022-09-13T12:44:27;13.83;;;7.40;;
1412;SDS011;701;52.526;13.408;2022-09-13T12:58:51;40.73;;;9.87;;
1412;SDS011;701;52.526;13.408;2022-09-13T13:01:32;16.65;;;7.60;;
1412;SDS011;701;52.526;13.408;2022-09-13T13:04:02;16.95;;;7.53;;
1412;SDS011;701;52.526;13.408;2022-09-13T13:06:36;15.05;;;6.00;;
1412;SDS011;701;52.526;13.408;2022-09-13T13:09:27;13.55;;;6.68;;
1412;SDS011;701;52.526;13.408;2022-09-13T13:12:00;17.27;;;6.87;;
1412;SDS011;701;52.526;13.408;2022-09-13T14:05:21;9.63;;;4.35;;
1412;SDS011;701;52.526;13.408;2022-09-13T14:17:12;9.10;;;4.30;;
1412;SDS011;701;52.526;13.408;2022-09-13T14:20:10;7.57;;;4.40;;
1412;SDS011;701;52.526;13.408;2022-09-13T14:22:39;13.15;;;6.60;;
1412;SDS011;701;52.526;13.408;2022-09-13T14:27:42;7.70;;;3.95;;
1412;SDS011;701;52.526;13.408;2022-09-13T14:32:47;9.95;;;4.32;;
1412;SDS011;701;52.526;13.408;2022-09-13T14:35:28;8.05;;;3.58;;
1412;SDS011;701;52.526;13.408;2022-09-13T14:37:55;7.37;;;3.53;;
1412;SDS011;701;52.526;13.408;2022-09-13T14:40:34;6.30;;;3.50;;
1412;SDS011;701;52.526;13.408;2022-09-13T14:42:59;7.00;;;3.50;;
1412;SDS011;701;52.526;13.408;2022-09-13T14:45:37;7.90;;;3.20;;
1412;SDS011;701;52.526;13.408;2022-09-13T14:48:04;7.93;;;3.80;;
1412;SDS011;701;52.526;13.408;2022-09-13T14:50:39;7.45;;;3.40;;
1412;SDS011;701;52.526;13.408;2022-09-13T14:53:13;7.97;;;3.88;;
1412;SDS011;701;52.526;13.408;2022-09-13T14:55:46;7.20;;;3.60;;
1412;SDS011;701;52.526;13.408;2022-09-13T14:58:17;7.97;;;3.55;;
1412;SDS011;701;52.526;13.408;2022-09-13T15:00:50;7.30;;;3.50;;
1412;SDS011;701;52.526;13.408;2022-09-13T15:03:24;7.47;;;3.28;;
1412;SDS011;701;52.526;13.408;2022-09-13T15:05:52;11.40;;;6.72;;
1412;SDS011;701;52.526;13.408;2022-09-13T15:10:59;8.80;;;3.75;;
1412;SDS011;701;52.526;13.408;2022-09-13T15:13:26;7.63;;;4.00;;
1412;SDS011;701;52.526;13.408;2022-09-13T15:15:52;7.47;;;3.90;;
1412;SDS011;701;52.526;13.408;2022-09-13T15:23:25;9.00;;;4.20;;
1412;SDS011;701;52.526;13.408;2022-09-13T15:26:09;11.13;;;4.50;;
1412;SDS011;701;52.526;13.408;2022-09-13T15:28:53;9.20;;;4.50;;
1412;SDS011;701;52.526;13.408;2022-09-13T15:31:34;8.98;;;5.22;;
1412;SDS011;701;52.526;13.408;2022-09-13T15:34:09;10.10;;;4.90;;
1412;SDS011;701;52.526;13.408;2022-09-13T15:36:38;10.80;;;4.40;;
1412;SDS011;701;52.526;13.408;2022-09-13T15:41:33;9.65;;;5.13;;
1412;SDS011;701;52.526;13.408;2022-09-13T15:44:00;9.43;;;5.38;;
1412;SDS011;701;52.526;13.408;2022-09-13T15:46:28;10.43;;;5.13;;
1412;SDS011;701;52.526;13.408;2022-09-13T15:48:56;9.80;;;4.97;;
1412;SDS011;701;52.526;13.408;2022-09-13T15:51:29;13.03;;;5.27;;
1412;SDS011;701;52.526;13.408;2022-09-13T15:53:55;9.35;;;5.20;;
1412;SDS011;701;52.526;13.408;2022-09-13T15:56:41;11.32;;;5.53;;
1412;SDS011;701;52.526;13.408;2022-09-13T15:59:15;9.50;;;4.78;;
1412;SDS011;701;52.526;13.408;2022-09-13T16:01:42;10.23;;;5.40;;
1412;SDS011;701;52.526;13.408;2022-09-13T16:04:09;10.73;;;5.63;;
1412;SDS011;701;52.526;13.408;2022-09-13T16:06:35;9.63;;;5.07;;
1412;SDS011;701;52.526;13.408;2022-09-13T16:09:04;10.93;;;5.03;;
1412;SDS011;701;52.526;13.408;2022-09-13T16:11:40;9.80;;;4.80;;
1412;SDS011;701;52.526;13.408;2022-09-13T16:14:05;8.90;;;4.30;;
1412;SDS011;701;52.526;13.408;2022-09-13T16:16:31;10.13;;;4.17;;
1412;SDS011;701;52.526;13.408;2022-09-13T16:19:05;8.57;;;4.38;;
1412;SDS011;701;52.526;13.408;2022-09-13T16:21:33;11.60;;;4.43;;
1412;SDS011;701;52.526;13.408;2022-09-13T16:23:59;13.77;;;4.40;;
1412;SDS011;701;52.526;13.408;2022-09-13T16:26:24;9.77;;;4.30;;
1412;SDS011;701;52.526;13.408;2022-09-13T16:28:51;8.40;;;4.22;;
1412;SDS011;701;52.526;13.408;2022-09-13T16:31:17;9.87;;;4.00;;
1412;SDS011;701;52.526;13.408;2022-09-13T16:33:44;12.00;;;5.68;;
1412;SDS011;701;52.526;13.408;2022-09-13T16:36:10;16.50;;;5.65;;
1412;SDS011;701;52.526;13.408;2022-09-13T16:38:37;12.35;;;4.68;;
1412;SDS011;701;52.526;13.408;2022-09-13T16:41:05;12.87;;;5.40;;
1412;SDS011;701;52.526;13.408;2022-09-13T16:43:34;9.85;;;5.40;;
1412;SDS011;701;52.526;13.408;2022-09-13T16:46:07;10.23;;;4.90;;
1412;SDS011;701;52.526;13.408;2022-09-13T16:48:33;8.52;;;4.65;;
1412;SDS011;701;52.526;13.408;2022-09-13T16:51:04;9.20;;;4.85;;
1412;SDS011;701;52.526;13.408;2022-09-13T16:53:31;10.88;;;5.70;;
1412;SDS011;701;52.526;13.408;2022-09-13T16:56:05;12.50;;;5.65;;
1412;SDS011;701;52.526;13.408;2022-09-13T16:58:31;12.50;;;5.90;;
1412;SDS011;701;52.526;13.408;2022-09-13T17:01:02;9.20;;;5.00;;
1412;SDS011;701;52.526;13.408;2022-09-13T17:03:29;11.05;;;5.30;;
1412;SDS011;701;52.526;13.408;2022-09-13T17:05:59;12.75;;;4.97;;
1412;SDS011;701;52.526;13.408;2022-09-13T17:08:25;12.50;;;5.25;;
1412;SDS011;701;52.526;13.408;2022-09-13T17:10:51;12.03;;;5.63;;
1412;SDS011;701;52.526;13.408;2022-09-13T17:13:17;8.63;;;4.32;;
1412;SDS011;701;52.526;13.408;2022-09-13T17:15:43;9.27;;;4.93;;
1412;SDS011;701;52.526;13.408;2022-09-13T17:18:08;9.98;;;5.13;;
1412;SDS011;701;52.526;13.408;2022-09-13T17:20:34;8.95;;;4.63;;
1412;SDS011;701;52.526;13.408;2022-09-13T17:23:00;9.17;;;4.53;;
1412;SDS011;701;52.526;13.408;2022-09-13T17:25:26;9.30;;;4.45;;
1412;SDS011;701;52.526;13.408;2022-09-13T17:27:51;9.50;;;4.43;;
1412;SDS011;701;52.526;13.408;2022-09-13T17:30:17;9.93;;;4.80;;
1412;SDS011;701;52.526;13.408;2022-09-13T17:32:43;9.47;;;4.23;;
1412;SDS011;701;52.526;13.408;2022-09-13T17:35:08;9.43;;;4.65;;
1412;SDS011;701;52.526;13.408;2022-09-13T17:37:36;9.73;;;4.30;;
1412;SDS011;701;52.526;13.408;2022-09-13T17:40:02;8.98;;;4.22;;
1412;SDS011;701;52.526;13.408;2022-09-13T17:42:28;9.63;;;4.40;;
1412;SDS011;701;52.526;13.408;2022-09-13T17:44:53;8.67;;;4.00;;
1412;SDS011;701;52.526;13.408;2022-09-13T17:47:19;8.07;;;4.10;;
1412;SDS011;701;52.526;13.408;2022-09-13T17:49:45;9.27;;;4.30;;
1412;SDS011;701;52.526;13.408;2022-09-13T17:52:11;7.67;;;3.97;;
1412;SDS011;701;52.526;13.408;2022-09-13T17:54:37;9.60;;;4.30;;
1412;SDS011;701;52.526;13.408;2022-09-13T17:57:03;9.20;;;3.90;;
1412;SDS011;701;52.526;13.408;2022-09-13T17:59:28;9.10;;;3.90;;
1412;SDS011;701;52.526;13.408;2022-09-13T18:01:56;10.38;;;4.55;;
1412;SDS011;701;52.526;13.408;2022-09-13T18:04:24;10.67;;;4.57;;
1412;SDS011;701;52.526;13.408;2022-09-13T18:06:51;9.75;;;3.60;;
1412;SDS011;701;52.526;13.408;2022-09-13T18:09:17;7.75;;;3.60;;
1412;SDS011;701;52.526;13.408;2022-09-13T18:11:43;8.52;;;3.95;;
1412;SDS011;701;52.526;13.408;2022-09-13T18:14:13;6.50;;;3.43;;
1412;SDS011;701;52.526;13.408;2022-09-13T18:16:41;6.68;;;3.20;;
1412;SDS011;701;52.526;13.408;2022-09-13T18:19:07;12.57;;;4.00;;
1412;SDS011;701;52.526;13.408;2022-09-13T18:21:33;8.35;;;3.53;;
1412;SDS011;701;52.526;13.408;2022-09-13T18:23:59;8.23;;;3.57;;
1412;SDS011;701;52.526;13.408;2022-09-13T18:26:26;7.60;;;3.42;;
1412;SDS011;701;52.526;13.408;2022-09-13T18:28:56;7.82;;;3.58;;
1412;SDS011;701;52.526;13.408;2022-09-13T18:31:26;7.22;;;3.53;;
1412;SDS011;701;52.526;13.408;2022-09-13T18:33:55;9.68;;;3.80;;
1412;SDS011;701;52.526;13.408;2022-09-13T18:36:26;7.77;;;3.30;;
1412;SDS011;701;52.526;13.408;2022-09-13T18:38:53;6.45;;;3.22;;
1412;SDS011;701;52.526;13.408;2022-09-13T18:41:24;7.03;;;3.42;;
1412;SDS011;701;52.526;13.408;2022-09-13T18:43:53;7.85;;;3.53;;
1412;SDS011;701;52.526;13.408;2022-09-13T18:46:20;9.07;;;3.63;;
1412;SDS011;701;52.526;13.408;2022-09-13T18:48:49;7.10;;;3.33;;
1412;SDS011;701;52.526;13.408;2022-09-13T18:51:18;6.93;;;3.33;;
1412;SDS011;701;52.526;13.408;2022-09-13T18:53:46;6.35;;;3.22;;
1412;SDS011;701;52.526;13.408;2022-09-13T18:56:13;7.90;;;3.38;;
1412;SDS011;701;52.526;13.408;2022-09-13T18:58:41;6.90;;;3.27;;
1412;SDS011;701;52.526;13.408;2022-09-13T19:01:09;6.88;;;3.45;;
1412;SDS011;701;52.526;13.408;2022-09-13T19:03:36;7.38;;;3.40;;
1412;SDS011;701;52.526;13.408;2022-09-13T19:06:07;7.68;;;3.85;;
1412;SDS011;701;52.526;13.408;2022-09-13T19:08:36;7.95;;;3.33;;
1412;SDS011;701;52.526;13.408;2022-09-13T19:11:03;7.73;;;3.30;;
1412;SDS011;701;52.526;13.408;2022-09-13T19:13:29;9.70;;;3.38;;
1412;SDS011;701;52.526;13.408;2022-09-13T19:16:02;7.13;;;3.80;;
1412;SDS011;701;52.526;13.408;2022-09-13T19:18:29;7.93;;;3.88;;
1412;SDS011;701;52.526;13.408;2022-09-13T19:23:31;11.27;;;4.00;;
1412;SDS011;701;52.526;13.408;2022-09-13T19:26:06;10.98;;;4.00;;
1412;SDS011;701;52.526;13.408;2022-09-13T19:28:38;8.75;;;3.67;;